Time;durP1;ratioP1;P1;durP2;ratioP2;P2;SDS_P1;SDS_P2;PMS_P1;PMS_P2;Temp;Humidity;BMP_temperature;BMP_pressure;BME280_temperature;BME280_humidity;BME280_pressure;Samples;Min_cycle;Max_cycle;Signal;HPM_P1;HPM_P2
2023/11/13 00:01:21;;;;;;;17.27;16.27;;;;;;;;;;5065410;28;20059;-61
2023/11/13 00:03:47;;;;;;;17.95;16.95;;;;;;;;;;5064225;28;20802;-61
2023/11/13 00:06:13;;;;;;;18.70;17.60;;;;;;;;;;5067691;28;20055;-61
2023/11/13 00:08:39;;;;;;;18.05;17.05;;;;;;;;;;5062434;28;20108;-61
2023/11/13 00:11:04;;;;;;;17.25;16.25;;;;;;;;;;5069129;28;20140;-61
2023/11/13 00:13:30;;;;;;;18.40;17.30;;;;;;;;;;5064094;28;20664;-60
2023/11/13 00:15:55;;;;;;;18.58;17.58;;;;;;;;;;5065604;28;20060;-61
2023/11/13 00:18:21;;;;;;;18.10;17.10;;;;;;;;;;5066592;28;20032;-61
2023/11/13 00:20:46;;;;;;;18.15;17.15;;;;;;;;;;5064500;28;20029;-62
2023/11/13 00:23:12;;;;;;;16.58;15.68;;;;;;;;;;5066328;28;20098;-61
2023/11/13 00:25:37;;;;;;;18.15;17.15;;;;;;;;;;5062649;28;20051;-61
2023/11/13 00:28:03;;;;;;;17.70;16.70;;;;;;;;;;5062137;28;20047;-61
2023/11/13 00:30:28;;;;;;;18.35;17.35;;;;;;;;;;5065081;28;20024;-61
2023/11/13 00:32:53;;;;;;;16.63;15.73;;;;;;;;;;5065920;28;20044;-61
2023/11/13 00:35:19;;;;;;;18.83;17.75;;;;;;;;;;5066982;28;20055;-62
2023/11/13 00:37:44;;;;;;;18.50;17.50;;;;;;;;;;5063234;28;20131;-61
2023/11/13 00:40:12;;;;;;;18.85;17.85;;;;;;;;;;5066815;28;20047;-62
2023/11/13 00:42:39;;;;;;;17.67;16.67;;;;;;;;;;5063261;28;20036;-61
2023/11/13 00:45:06;;;;;;;18.13;17.13;;;;;;;;;;5066294;28;20562;-61
2023/11/13 00:47:31;;;;;;;18.70;17.70;;;;;;;;;;5063234;28;20165;-61
2023/11/13 00:49:57;;;;;;;17.75;16.75;;;;;;;;;;5064727;28;20040;-61
2023/11/13 00:52:22;;;;;;;18.80;17.75;;;;;;;;;;5064201;28;20032;-61
2023/11/13 00:54:48;;;;;;;18.40;17.40;;;;;;;;;;5063385;28;20071;-61
2023/11/13 00:57:13;;;;;;;17.38;16.38;;;;;;;;;;5062656;28;20611;-61
2023/11/13 00:59:39;;;;;;;18.23;17.23;;;;;;;;;;5061209;28;20708;-61
2023/11/13 01:02:04;;;;;;;18.60;17.58;;;;;;;;;;5064741;28;20089;-61
2023/11/13 01:04:29;;;;;;;18.55;17.55;;;;;;;;;;5066472;28;20056;-60
2023/11/13 01:06:55;;;;;;;17.90;16.90;;;;;;;;;;5067083;28;20501;-61
2023/11/13 01:09:21;;;;;;;20.92;19.60;;;;;;;;;;5063267;28;20036;-61
2023/11/13 01:11:48;;;;;;;19.95;18.85;;;;;;;;;;5067126;28;20043;-60
2023/11/13 01:14:14;;;;;;;19.58;18.48;;;;;;;;;;5064282;28;20094;-61
2023/11/13 01:16:39;;;;;;;18.77;17.77;;;;;;;;;;5061412;28;20036;-61
2023/11/13 01:19:05;;;;;;;18.33;17.33;;;;;;;;;;5066401;28;20089;-60
2023/11/13 01:21:31;;;;;;;20.17;19.08;;;;;;;;;;5046404;28;20032;-61
2023/11/13 01:23:56;;;;;;;21.33;19.92;;;;;;;;;;5063648;28;20032;-62
2023/11/13 01:26:22;;;;;;;19.35;18.27;;;;;;;;;;5065712;28;20028;-62
2023/11/13 01:28:47;;;;;;;19.83;18.73;;;;;;;;;;5065962;28;20063;-62
2023/11/13 01:31:17;;;;;;;19.95;18.85;;;;;;;;;;5061937;28;20454;-62
2023/11/13 01:33:42;;;;;;;20.52;19.42;;;;;;;;;;5063317;28;20155;-62
2023/11/13 01:36:08;;;;;;;21.02;19.85;;;;;;;;;;5061655;28;20111;-62
2023/11/13 01:38:33;;;;;;;19.20;18.10;;;;;;;;;;5060880;28;20081;-63
2023/11/13 01:40:59;;;;;;;20.80;19.67;;;;;;;;;;5063458;28;20032;-62
2023/11/13 01:43:24;;;;;;;20.70;19.35;;;;;;;;;;5066208;28;20040;-62
2023/11/13 01:45:56;;;;;;;19.95;18.85;;;;;;;;;;5063687;28;20037;-62
2023/11/13 01:48:23;;;;;;;21.58;20.38;;;;;;;;;;5064099;28;20533;-63
2023/11/13 01:50:50;;;;;;;19.10;18.10;;;;;;;;;;5058228;28;20036;-63
2023/11/13 01:53:22;;;;;;;19.60;18.50;;;;;;;;;;5064734;28;20151;-64
2023/11/13 01:55:48;;;;;;;19.98;18.77;;;;;;;;;;5065338;28;20028;-62
2023/11/13 01:58:15;;;;;;;20.55;19.45;;;;;;;;;;5066686;28;20307;-62
2023/11/13 02:00:40;;;;;;;20.25;19.15;;;;;;;;;;5060205;28;20500;-63
2023/11/13 02:03:07;;;;;;;21.10;19.90;;;;;;;;;;5064681;28;20040;-62
2023/11/13 02:05:33;;;;;;;21.45;20.25;;;;;;;;;;5064151;28;20040;-63
2023/11/13 02:07:58;;;;;;;20.45;19.33;;;;;;;;;;5061970;28;20055;-62
2023/11/13 02:10:26;;;;;;;22.17;20.98;;;;;;;;;;5063945;28;20021;-63
2023/11/13 02:12:53;;;;;;;46.65;20.40;;;;;;;;;;5063545;28;20045;-63
2023/11/13 02:15:19;;;;;;;20.88;19.75;;;;;;;;;;5063268;28;20489;-63
2023/11/13 02:18:01;;;;;;;19.95;18.85;;;;;;;;;;5066062;28;20380;-62
2023/11/13 02:20:27;;;;;;;21.27;20.08;;;;;;;;;;5061995;28;20147;-62
2023/11/13 02:22:52;;;;;;;22.35;21.05;;;;;;;;;;5062839;28;20478;-62
2023/11/13 02:25:22;;;;;;;20.58;19.38;;;;;;;;;;5065096;28;20043;-63
2023/11/13 02:27:51;;;;;;;21.77;20.48;;;;;;;;;;5062422;28;20032;-63
2023/11/13 02:30:16;;;;;;;21.55;20.23;;;;;;;;;;5062201;28;20031;-63
2023/11/13 02:32:42;;;;;;;21.40;20.20;;;;;;;;;;5063899;28;20036;-63
2023/11/13 02:35:08;;;;;;;22.05;20.85;;;;;;;;;;5069763;28;20034;-63
2023/11/13 02:37:33;;;;;;;21.77;20.38;;;;;;;;;;5050475;28;20089;-63
2023/11/13 02:39:58;;;;;;;21.80;20.50;;;;;;;;;;5074898;28;20058;-63
2023/11/13 02:42:24;;;;;;;21.05;19.75;;;;;;;;;;5071720;28;20032;-63
2023/11/13 02:44:49;;;;;;;20.02;18.92;;;;;;;;;;5064300;28;20058;-63
2023/11/13 02:47:15;;;;;;;20.42;19.30;;;;;;;;;;5067754;28;20038;-63
2023/11/13 02:49:41;;;;;;;21.33;20.10;;;;;;;;;;5067342;28;20651;-63
2023/11/13 02:52:06;;;;;;;20.95;19.77;;;;;;;;;;5063937;28;20040;-63
2023/11/13 02:54:31;;;;;;;22.67;21.38;;;;;;;;;;5066903;28;20234;-63
2023/11/13 02:56:57;;;;;;;19.75;18.60;;;;;;;;;;5065905;28;20040;-63
2023/11/13 02:59:22;;;;;;;20.75;19.55;;;;;;;;;;5067559;28;20517;-63
2023/11/13 03:01:48;;;;;;;19.95;18.77;;;;;;;;;;5065312;28;20033;-63
2023/11/13 03:04:13;;;;;;;19.17;18.08;;;;;;;;;;5065862;28;20028;-63
2023/11/13 03:06:38;;;;;;;21.58;19.98;;;;;;;;;;5066164;28;20039;-63
2023/11/13 03:09:04;;;;;;;21.63;20.15;;;;;;;;;;5067036;28;20028;-63
2023/11/13 03:11:30;;;;;;;20.45;19.25;;;;;;;;;;5065435;28;20033;-63
2023/11/13 03:13:55;;;;;;;21.60;20.30;;;;;;;;;;5072048;28;20071;-63
2023/11/13 03:16:20;;;;;;;20.40;19.30;;;;;;;;;;5065916;28;20370;-63
2023/11/13 03:18:46;;;;;;;21.88;20.67;;;;;;;;;;5067784;28;20044;-63
2023/11/13 03:21:12;;;;;;;20.60;19.45;;;;;;;;;;5066378;28;20043;-63
2023/11/13 03:23:37;;;;;;;20.77;19.65;;;;;;;;;;5068388;28;20143;-64
2023/11/13 03:26:03;;;;;;;21.35;20.17;;;;;;;;;;5067497;28;20115;-64
2023/11/13 03:28:29;;;;;;;22.20;20.88;;;;;;;;;;5068853;28;20403;-64
2023/11/13 03:30:54;;;;;;;21.80;20.60;;;;;;;;;;5066831;28;20040;-65
2023/11/13 03:33:20;;;;;;;20.02;18.92;;;;;;;;;;5068391;28;20123;-64
2023/11/13 03:35:46;;;;;;;20.30;19.20;;;;;;;;;;5063707;28;20043;-65
2023/11/13 03:38:11;;;;;;;21.88;20.58;;;;;;;;;;5065453;28;20127;-65
2023/11/13 03:40:37;;;;;;;20.27;19.17;;;;;;;;;;5065086;28;20061;-65
2023/11/13 03:43:02;;;;;;;20.33;19.23;;;;;;;;;;5067742;28;20033;-65
2023/11/13 03:45:28;;;;;;;20.50;19.40;;;;;;;;;;5065670;28;20127;-65
2023/11/13 03:47:54;;;;;;;21.45;20.15;;;;;;;;;;5063451;28;20397;-66
2023/11/13 03:50:19;;;;;;;21.02;19.83;;;;;;;;;;5069577;28;20029;-66
2023/11/13 03:52:44;;;;;;;21.17;19.98;;;;;;;;;;5065373;28;20036;-66
2023/11/13 03:55:10;;;;;;;21.20;20.00;;;;;;;;;;5067081;28;20366;-66
2023/11/13 03:57:35;;;;;;;19.77;18.67;;;;;;;;;;5065683;28;20055;-66
2023/11/13 04:00:01;;;;;;;22.42;20.85;;;;;;;;;;5069578;28;20040;-67
2023/11/13 04:02:26;;;;;;;20.80;19.70;;;;;;;;;;5066621;28;20024;-66
2023/11/13 04:04:51;;;;;;;20.80;19.60;;;;;;;;;;5068770;28;20127;-66
2023/11/13 04:07:20;;;;;;;20.75;19.55;;;;;;;;;;5064467;28;20099;-66
2023/11/13 04:09:46;;;;;;;22.13;20.90;;;;;;;;;;5072051;28;20036;-66
2023/11/13 04:12:11;;;;;;;19.60;18.50;;;;;;;;;;5068754;28;20115;-66
2023/11/13 04:14:37;;;;;;;21.90;20.70;;;;;;;;;;5067741;28;20169;-66
2023/11/13 04:17:04;;;;;;;21.17;19.98;;;;;;;;;;5067764;28;20116;-66
2023/11/13 04:19:29;;;;;;;21.00;19.90;;;;;;;;;;5064176;28;20032;-66
2023/11/13 04:21:55;;;;;;;20.45;19.25;;;;;;;;;;5069594;28;20437;-66
2023/11/13 04:24:21;;;;;;;21.05;19.85;;;;;;;;;;5065819;28;20038;-66
2023/11/13 04:26:46;;;;;;;20.27;19.08;;;;;;;;;;5068374;28;20162;-66
2023/11/13 04:29:12;;;;;;;21.73;20.42;;;;;;;;;;5065501;28;20023;-66
2023/11/13 04:31:37;;;;;;;21.52;20.35;;;;;;;;;;5064889;28;20024;-66
2023/11/13 04:34:05;;;;;;;20.27;19.17;;;;;;;;;;5066884;28;20089;-67
2023/11/13 04:36:32;;;;;;;19.95;18.85;;;;;;;;;;5067053;28;20621;-67
2023/11/13 04:38:57;;;;;;;20.48;19.35;;;;;;;;;;5064085;28;20488;-67
2023/11/13 04:41:23;;;;;;;20.27;19.17;;;;;;;;;;5063962;28;20052;-67
2023/11/13 04:43:49;;;;;;;20.85;19.73;;;;;;;;;;5047525;28;20128;-66
2023/11/13 04:46:14;;;;;;;21.08;19.88;;;;;;;;;;5062443;28;20048;-66
2023/11/13 04:48:40;;;;;;;20.23;19.02;;;;;;;;;;5070264;28;20399;-66
2023/11/13 04:51:06;;;;;;;21.25;20.08;;;;;;;;;;5064223;28;20032;-66
2023/11/13 04:53:33;;;;;;;20.67;19.52;;;;;;;;;;5063512;28;20070;-66
2023/11/13 04:55:58;;;;;;;19.88;18.77;;;;;;;;;;5064785;28;20059;-66
2023/11/13 04:58:23;;;;;;;21.15;19.95;;;;;;;;;;5064705;28;20028;-65
2023/11/13 05:00:49;;;;;;;20.48;19.38;;;;;;;;;;5062933;28;20032;-65
2023/11/13 05:03:14;;;;;;;22.48;19.92;;;;;;;;;;5069295;28;20028;-65
2023/11/13 05:05:40;;;;;;;22.70;21.40;;;;;;;;;;5067428;28;20459;-65
2023/11/13 05:08:05;;;;;;;20.48;19.38;;;;;;;;;;5063797;28;20067;-66
2023/11/13 05:10:32;;;;;;;21.35;20.15;;;;;;;;;;5063669;28;20051;-66
2023/11/13 05:12:58;;;;;;;21.85;20.65;;;;;;;;;;5065145;28;20035;-66
2023/11/13 05:15:24;;;;;;;22.08;20.88;;;;;;;;;;5064967;28;20501;-65
2023/11/13 05:17:49;;;;;;;22.23;21.02;;;;;;;;;;5064245;28;20107;-65
2023/11/13 05:20:16;;;;;;;22.95;21.67;;;;;;;;;;5066973;28;20044;-65
2023/11/13 05:22:41;;;;;;;22.05;20.85;;;;;;;;;;5061688;28;20032;-65
2023/11/13 05:25:08;;;;;;;21.50;20.30;;;;;;;;;;5066460;28;20032;-65
2023/11/13 05:27:33;;;;;;;22.40;21.10;;;;;;;;;;5061556;28;20153;-65
2023/11/13 05:29:58;;;;;;;22.38;21.17;;;;;;;;;;5064093;28;20115;-66
2023/11/13 05:32:24;;;;;;;22.48;21.27;;;;;;;;;;5066601;28;20043;-65
2023/11/13 05:34:50;;;;;;;22.35;21.15;;;;;;;;;;5068913;28;20043;-66
2023/11/13 05:37:15;;;;;;;20.73;19.55;;;;;;;;;;5065613;28;20063;-64
2023/11/13 05:39:41;;;;;;;21.90;20.70;;;;;;;;;;5065275;28;20025;-65
2023/11/13 05:42:07;;;;;;;20.45;19.35;;;;;;;;;;5063169;28;20146;-65
2023/11/13 05:44:36;;;;;;;23.23;21.92;;;;;;;;;;5066828;28;20075;-65
2023/11/13 05:47:02;;;;;;;20.65;19.55;;;;;;;;;;5066764;28;20530;-64
2023/11/13 05:49:28;;;;;;;22.98;21.67;;;;;;;;;;5066274;28;20097;-65
2023/11/13 05:51:53;;;;;;;23.75;22.45;;;;;;;;;;5064777;28;20411;-65
2023/11/13 05:54:19;;;;;;;22.02;20.83;;;;;;;;;;5064646;28;20025;-65
2023/11/13 05:56:45;;;;;;;21.70;20.50;;;;;;;;;;5066176;28;20037;-65
2023/11/13 05:59:10;;;;;;;21.85;20.65;;;;;;;;;;5064918;28;20032;-65
2023/11/13 06:01:36;;;;;;;22.95;21.65;;;;;;;;;;5063495;28;20033;-65
2023/11/13 06:04:01;;;;;;;22.05;20.85;;;;;;;;;;5065676;28;20373;-65
2023/11/13 06:06:28;;;;;;;21.52;20.33;;;;;;;;;;5065449;28;20037;-65
2023/11/13 06:08:53;;;;;;;21.70;20.40;;;;;;;;;;5071500;28;20576;-64
2023/11/13 06:11:19;;;;;;;21.90;20.52;;;;;;;;;;5069293;28;20123;-66
2023/11/13 06:13:46;;;;;;;22.48;21.23;;;;;;;;;;5071316;28;20110;-67
2023/11/13 06:16:11;;;;;;;23.08;21.77;;;;;;;;;;5069385;28;20063;-65
2023/11/13 06:18:48;;;;;;;21.98;20.77;;;;;;;;;;5071085;28;20078;-65
2023/11/13 06:21:14;;;;;;;21.73;20.52;;;;;;;;;;5068679;28;20046;-64
2023/11/13 06:23:42;;;;;;;22.67;21.48;;;;;;;;;;5070714;28;20078;-63
2023/11/13 06:26:12;;;;;;;23.33;22.05;;;;;;;;;;5071795;28;20115;-66
2023/11/13 06:28:38;;;;;;;24.85;23.45;;;;;;;;;;5071858;28;20035;-64
2023/11/13 06:31:04;;;;;;;22.38;21.17;;;;;;;;;;5069809;28;20043;-65
2023/11/13 06:33:30;;;;;;;24.33;22.92;;;;;;;;;;5067733;28;20095;-66
2023/11/13 06:35:55;;;;;;;24.15;22.70;;;;;;;;;;5072245;28;20044;-65
2023/11/13 06:38:21;;;;;;;23.38;21.92;;;;;;;;;;5068014;28;20045;-65
2023/11/13 06:40:46;;;;;;;23.95;22.58;;;;;;;;;;5072230;28;20028;-65
2023/11/13 06:43:12;;;;;;;23.80;22.50;;;;;;;;;;5067485;28;20032;-65
2023/11/13 06:45:37;;;;;;;22.60;21.40;;;;;;;;;;5067813;28;20517;-65
2023/11/13 06:48:03;;;;;;;22.67;21.27;;;;;;;;;;5066669;28;20033;-65
2023/11/13 06:50:28;;;;;;;23.02;21.67;;;;;;;;;;5066252;28;20054;-65
2023/11/13 06:52:54;;;;;;;23.88;22.50;;;;;;;;;;5071497;28;20032;-65
2023/11/13 06:55:19;;;;;;;23.52;22.23;;;;;;;;;;5072252;28;20043;-65
2023/11/13 06:57:45;;;;;;;24.90;23.50;;;;;;;;;;5069830;28;20024;-65
2023/11/13 07:00:11;;;;;;;23.10;21.75;;;;;;;;;;5070676;28;20375;-64
2023/11/13 07:02:39;;;;;;;22.70;21.35;;;;;;;;;;5067865;28;20032;-65
2023/11/13 07:05:10;;;;;;;23.45;22.05;;;;;;;;;;5071904;28;20048;-65
2023/11/13 07:07:36;;;;;;;;;;;;;;;;;;5067205;28;20037;-64
2023/11/13 07:10:04;;;;;;;24.13;22.83;;;;;;;;;;5068344;28;19918;-64
2023/11/13 07:12:30;;;;;;;24.73;23.33;;;;;;;;;;5067962;28;20040;-65
2023/11/13 07:14:57;;;;;;;24.52;23.10;;;;;;;;;;5069620;28;20117;-65
2023/11/13 07:17:23;;;;;;;24.45;23.05;;;;;;;;;;5069841;28;20028;-65
2023/11/13 07:19:48;;;;;;;26.33;24.23;;;;;;;;;;5066753;28;20044;-65
2023/11/13 07:22:13;;;;;;;23.65;22.35;;;;;;;;;;5067378;28;20037;-65
2023/11/13 07:24:39;;;;;;;23.75;22.38;;;;;;;;;;5065408;28;20035;-65
2023/11/13 07:27:05;;;;;;;24.65;23.20;;;;;;;;;;5065869;28;20075;-65
2023/11/13 07:29:31;;;;;;;25.38;23.67;;;;;;;;;;5067145;28;20107;-64
2023/11/13 07:31:57;;;;;;;25.35;23.80;;;;;;;;;;5065305;28;20032;-65
2023/11/13 07:34:23;;;;;;;25.55;23.65;;;;;;;;;;5065852;28;20028;-64
2023/11/13 07:36:48;;;;;;;25.88;24.02;;;;;;;;;;5062950;28;20417;-63
2023/11/13 07:39:15;;;;;;;24.85;23.20;;;;;;;;;;5065855;28;20040;-64
2023/11/13 07:41:40;;;;;;;25.40;23.90;;;;;;;;;;5065425;28;20040;-64
2023/11/13 07:44:06;;;;;;;28.45;26.75;;;;;;;;;;5066375;28;20504;-65
2023/11/13 07:46:31;;;;;;;27.55;25.95;;;;;;;;;;5067378;28;20510;-65
2023/11/13 07:48:57;;;;;;;27.50;25.60;;;;;;;;;;5064601;28;20037;-65
2023/11/13 07:51:22;;;;;;;27.60;26.00;;;;;;;;;;5065111;28;20036;-65
2023/11/13 07:53:48;;;;;;;25.48;23.95;;;;;;;;;;5063066;28;20036;-65
2023/11/13 07:56:14;;;;;;;23.75;22.42;;;;;;;;;;5068412;28;20073;-65
2023/11/13 07:58:40;;;;;;;24.70;22.95;;;;;;;;;;5064654;28;20045;-65
2023/11/13 08:01:06;;;;;;;24.23;22.83;;;;;;;;;;5063520;28;20124;-64
2023/11/13 08:03:31;;;;;;;25.02;23.40;;;;;;;;;;5062293;28;20036;-65
2023/11/13 08:05:56;;;;;;;24.17;22.75;;;;;;;;;;5066637;28;20032;-64
2023/11/13 08:08:22;;;;;;;22.88;21.58;;;;;;;;;;5067931;28;20052;-65
2023/11/13 08:10:47;;;;;;;25.58;24.08;;;;;;;;;;5067402;28;20024;-65
2023/11/13 08:13:14;;;;;;;23.15;21.65;;;;;;;;;;5063714;28;20029;-65
2023/11/13 08:15:42;;;;;;;22.75;21.35;;;;;;;;;;5066657;28;20033;-65
2023/11/13 08:18:13;;;;;;;23.50;22.10;;;;;;;;;;5066642;28;20044;-65
2023/11/13 08:20:42;;;;;;;24.67;23.17;;;;;;;;;;5063126;28;20309;-64
2023/11/13 08:23:10;;;;;;;23.58;22.17;;;;;;;;;;5064761;28;20036;-65
2023/11/13 08:25:37;;;;;;;22.80;21.48;;;;;;;;;;5063342;28;20447;-65
2023/11/13 08:28:04;;;;;;;24.25;22.75;;;;;;;;;;5064364;28;20027;-65
2023/11/13 08:30:29;;;;;;;24.50;23.15;;;;;;;;;;5062495;28;20405;-65
2023/11/13 08:32:55;;;;;;;25.33;23.85;;;;;;;;;;5062222;28;20037;-65
2023/11/13 08:35:21;;;;;;;26.45;24.63;;;;;;;;;;5063808;28;20778;-65
2023/11/13 08:37:47;;;;;;;24.77;23.38;;;;;;;;;;5064270;28;20120;-65
2023/11/13 08:40:19;;;;;;;24.88;23.48;;;;;;;;;;5065459;28;20025;-66
2023/11/13 08:42:46;;;;;;;24.73;23.33;;;;;;;;;;5062654;28;20098;-65
2023/11/13 08:45:12;;;;;;;25.88;24.30;;;;;;;;;;5063661;28;20056;-66
2023/11/13 08:47:39;;;;;;;25.55;23.80;;;;;;;;;;5066871;28;20079;-66
2023/11/13 08:50:08;;;;;;;24.48;23.08;;;;;;;;;;5066675;28;20126;-65
2023/11/13 08:52:34;;;;;;;23.98;22.58;;;;;;;;;;5066122;28;20166;-66
2023/11/13 08:54:59;;;;;;;25.25;23.85;;;;;;;;;;5062113;28;20104;-66
2023/11/13 08:57:24;;;;;;;24.80;23.33;;;;;;;;;;5066345;28;20036;-66
2023/11/13 08:59:51;;;;;;;23.45;22.05;;;;;;;;;;5064101;28;20033;-66
2023/11/13 09:02:16;;;;;;;24.55;23.15;;;;;;;;;;5069196;28;20454;-66
2023/11/13 09:04:43;;;;;;;22.98;21.63;;;;;;;;;;5070220;28;20047;-65
2023/11/13 09:07:11;;;;;;;25.77;24.17;;;;;;;;;;5064179;28;20065;-65
2023/11/13 09:09:39;;;;;;;24.13;22.65;;;;;;;;;;5064587;28;20685;-66
2023/11/13 09:12:05;;;;;;;25.45;24.02;;;;;;;;;;5066672;28;20050;-65
2023/11/13 09:14:36;;;;;;;28.17;26.48;;;;;;;;;;5067553;28;20032;-66
2023/11/13 09:17:09;;;;;;;26.42;24.85;;;;;;;;;;5067081;28;20421;-66
2023/11/13 09:19:38;;;;;;;27.17;25.58;;;;;;;;;;5065985;28;20052;-66
2023/11/13 09:22:07;;;;;;;25.20;23.77;;;;;;;;;;5047623;28;20044;-66
2023/11/13 09:24:32;;;;;;;27.05;25.40;;;;;;;;;;5064433;28;20029;-65
2023/11/13 09:26:58;;;;;;;25.00;23.60;;;;;;;;;;5062931;28;20097;-65
2023/11/13 09:29:23;;;;;;;29.30;27.70;;;;;;;;;;5063511;28;20040;-66
2023/11/13 09:31:49;;;;;;;27.42;25.83;;;;;;;;;;5060840;28;20040;-65
2023/11/13 09:34:15;;;;;;;28.85;27.17;;;;;;;;;;5065445;28;20117;-65
2023/11/13 09:36:44;;;;;;;29.02;27.42;;;;;;;;;;5062873;28;20513;-65
2023/11/13 09:39:09;;;;;;;30.85;28.90;;;;;;;;;;5065356;28;20032;-65
2023/11/13 09:41:45;;;;;;;28.90;27.35;;;;;;;;;;5061480;28;20028;-66
2023/11/13 09:44:11;;;;;;;30.15;28.55;;;;;;;;;;5066584;28;20036;-65
2023/11/13 09:46:39;;;;;;;32.67;30.48;;;;;;;;;;5065496;28;20474;-66
2023/11/13 09:49:10;;;;;;;33.83;32.03;;;;;;;;;;5064097;28;20119;-65
2023/11/13 09:51:37;;;;;;;30.45;28.85;;;;;;;;;;5066597;28;20028;-66
2023/11/13 09:54:04;;;;;;;31.23;29.58;;;;;;;;;;5062088;28;20063;-66
2023/11/13 09:56:30;;;;;;;31.88;30.20;;;;;;;;;;5063216;28;20244;-66
2023/11/13 09:58:57;;;;;;;34.92;33.03;;;;;;;;;;5064172;28;20243;-65
2023/11/13 10:01:23;;;;;;;38.45;36.20;;;;;;;;;;5065392;28;20029;-65
2023/11/13 10:03:48;;;;;;;35.92;33.70;;;;;;;;;;5063723;28;20032;-65
2023/11/13 10:06:15;;;;;;;33.42;31.65;;;;;;;;;;5062624;28;20036;-65
2023/11/13 10:08:42;;;;;;;32.75;31.08;;;;;;;;;;5061384;28;20064;-66
2023/11/13 10:11:09;;;;;;;34.63;32.72;;;;;;;;;;5062532;28;20052;-64
2023/11/13 10:13:35;;;;;;;31.25;29.60;;;;;;;;;;5061184;28;20060;-65
2023/11/13 10:16:23;;;;;;;31.75;30.08;;;;;;;;;;5062919;28;20497;-65
2023/11/13 10:18:49;;;;;;;26.67;25.23;;;;;;;;;;5063592;28;20071;-65
2023/11/13 10:21:33;;;;;;;27.50;26.08;;;;;;;;;;5061625;28;20373;-64
2023/11/13 10:24:15;;;;;;;26.77;25.35;;;;;;;;;;5064051;28;20029;-64
2023/11/13 10:26:41;;;;;;;26.83;25.42;;;;;;;;;;5060291;28;20086;-64
2023/11/13 10:29:33;;;;;;;24.80;23.50;;;;;;;;;;5065233;28;20472;-64
2023/11/13 10:31:59;;;;;;;25.27;23.95;;;;;;;;;;5063794;28;20047;-63
2023/11/13 10:34:43;;;;;;;24.15;22.85;;;;;;;;;;5065082;28;20252;-63
2023/11/13 10:37:10;;;;;;;24.73;23.42;;;;;;;;;;5062216;28;20098;-64
2023/11/13 10:39:37;;;;;;;24.58;23.27;;;;;;;;;;5061023;28;20041;-64
2023/11/13 10:42:05;;;;;;;24.38;23.08;;;;;;;;;;5063569;28;20032;-63
2023/11/13 10:44:37;;;;;;;24.80;23.50;;;;;;;;;;5060578;28;20064;-63
2023/11/13 10:47:23;;;;;;;23.98;22.67;;;;;;;;;;5062180;28;20033;-64
2023/11/13 10:49:50;;;;;;;23.73;22.42;;;;;;;;;;5064753;28;20052;-64
2023/11/13 10:52:17;;;;;;;24.02;22.75;;;;;;;;;;5047319;28;20481;-63
2023/11/13 10:54:48;;;;;;;25.75;23.85;;;;;;;;;;5065804;28;20944;-64
2023/11/13 10:57:16;;;;;;;25.17;23.55;;;;;;;;;;5064571;28;20025;-64
2023/11/13 10:59:42;;;;;;;24.42;22.92;;;;;;;;;;5065165;28;20050;-64
2023/11/13 11:02:50;;;;;;;23.05;21.83;;;;;;;;;;5070427;28;20103;-65
2023/11/13 11:05:22;;;;;;;23.35;22.05;;;;;;;;;;5063005;28;20036;-65
2023/11/13 11:07:54;;;;;;;24.73;23.33;;;;;;;;;;5059859;28;20122;-65
2023/11/13 11:10:25;;;;;;;23.17;21.90;;;;;;;;;;5065984;28;20055;-65
2023/11/13 11:13:03;;;;;;;23.65;22.25;;;;;;;;;;5066886;28;20109;-65
2023/11/13 11:15:47;;;;;;;24.80;23.45;;;;;;;;;;5066309;28;20101;-64
2023/11/13 11:18:39;;;;;;;23.25;22.00;;;;;;;;;;5067358;28;20503;-65
2023/11/13 11:21:08;;;;;;;22.08;20.88;;;;;;;;;;5056261;28;20402;-64
2023/11/13 11:23:46;;;;;;;25.15;23.70;;;;;;;;;;5067734;28;20029;-63
2023/11/13 11:26:12;;;;;;;24.23;22.75;;;;;;;;;;5069955;28;20101;-64
2023/11/13 11:28:52;;;;;;;24.55;23.23;;;;;;;;;;5070019;28;20032;-63
2023/11/13 11:31:37;;;;;;;24.13;21.77;;;;;;;;;;5069534;28;20052;-63
2023/11/13 11:34:07;;;;;;;23.42;22.10;;;;;;;;;;5064675;28;20139;-64
2023/11/13 11:36:37;;;;;;;26.95;25.33;;;;;;;;;;5067367;28;20107;-65
2023/11/13 11:39:19;;;;;;;24.70;23.25;;;;;;;;;;5061955;28;20094;-65
2023/11/13 11:41:54;;;;;;;23.80;22.50;;;;;;;;;;5067716;28;20100;-63
2023/11/13 11:44:27;;;;;;;26.23;24.73;;;;;;;;;;5067308;28;20032;-64
2023/11/13 11:46:53;;;;;;;26.10;24.38;;;;;;;;;;5068792;28;20373;-65
2023/11/13 11:49:26;;;;;;;24.33;22.98;;;;;;;;;;5067384;28;20439;-64
2023/11/13 11:51:53;;;;;;;24.75;23.30;;;;;;;;;;5061767;28;20209;-64
2023/11/13 11:54:21;;;;;;;26.20;24.60;;;;;;;;;;5065161;28;20029;-64
2023/11/13 11:56:56;;;;;;;26.80;25.23;;;;;;;;;;5064534;28;20875;-65
2023/11/13 11:59:24;;;;;;;25.70;24.15;;;;;;;;;;5064505;28;20109;-65
2023/11/13 12:01:50;;;;;;;24.88;23.52;;;;;;;;;;5065825;28;20462;-65
2023/11/13 12:04:15;;;;;;;26.10;24.67;;;;;;;;;;5064202;28;20116;-65
2023/11/13 12:06:41;;;;;;;27.30;25.85;;;;;;;;;;5064360;28;20033;-65
2023/11/13 12:09:08;;;;;;;26.77;25.35;;;;;;;;;;5062394;28;20029;-65
2023/11/13 12:11:34;;;;;;;26.13;24.63;;;;;;;;;;5069133;28;20586;-65
2023/11/13 12:14:00;;;;;;;27.27;25.83;;;;;;;;;;5064443;28;20124;-65
2023/11/13 12:16:26;;;;;;;29.42;27.52;;;;;;;;;;5062766;28;20032;-65
2023/11/13 12:18:52;;;;;;;26.85;25.42;;;;;;;;;;5062883;28;20025;-65
2023/11/13 12:21:17;;;;;;;29.08;27.50;;;;;;;;;;5063686;28;20047;-64
2023/11/13 12:23:46;;;;;;;28.13;26.65;;;;;;;;;;5064001;28;20029;-64
2023/11/13 12:26:13;;;;;;;28.05;26.55;;;;;;;;;;5062315;28;20094;-64
2023/11/13 12:28:40;;;;;;;28.23;26.63;;;;;;;;;;5062249;28;20033;-63
2023/11/13 12:31:19;;;;;;;29.13;27.58;;;;;;;;;;5061986;28;20021;-64
2023/11/13 12:33:48;;;;;;;32.88;31.17;;;;;;;;;;5066635;28;20083;-63
2023/11/13 12:36:15;;;;;;;31.92;30.02;;;;;;;;;;5066198;28;20417;-66
2023/11/13 12:38:47;;;;;;;32.15;30.45;;;;;;;;;;5049928;28;20032;-65
2023/11/13 12:41:14;;;;;;;34.38;31.15;;;;;;;;;;5066612;28;20120;-65
2023/11/13 12:43:43;;;;;;;33.70;31.90;;;;;;;;;;5065043;28;20347;-65
2023/11/13 12:46:09;;;;;;;30.83;29.23;;;;;;;;;;5064080;28;20039;-64
2023/11/13 12:48:35;;;;;;;32.42;30.73;;;;;;;;;;5063047;28;20032;-65
2023/11/13 12:51:05;;;;;;;33.40;31.65;;;;;;;;;;5061371;28;20040;-64
2023/11/13 12:53:34;;;;;;;39.72;37.63;;;;;;;;;;5061478;28;20079;-64
2023/11/13 12:56:04;;;;;;;35.60;33.70;;;;;;;;;;5063792;28;20517;-65
2023/11/13 12:58:29;;;;;;;38.95;36.95;;;;;;;;;;5062493;28;20025;-65
2023/11/13 13:00:55;;;;;;;44.72;42.33;;;;;;;;;;5063589;28;20040;-64
2023/11/13 13:03:22;;;;;;;42.63;40.42;;;;;;;;;;5066499;28;20032;-65
2023/11/13 13:05:48;;;;;;;43.58;41.28;;;;;;;;;;5062302;28;20279;-65
2023/11/13 13:08:13;;;;;;;40.15;38.05;;;;;;;;;;5061238;28;20452;-64
2023/11/13 13:10:41;;;;;;;42.85;40.58;;;;;;;;;;5065183;28;20109;-64
2023/11/13 13:13:08;;;;;;;43.03;40.65;;;;;;;;;;5064004;28;20044;-64
2023/11/13 13:15:34;;;;;;;46.38;43.97;;;;;;;;;;5065519;28;20037;-64
2023/11/13 13:18:02;;;;;;;51.80;49.13;;;;;;;;;;5061769;28;20032;-67
2023/11/13 13:20:31;;;;;;;44.97;42.60;;;;;;;;;;5063421;28;20036;-66
2023/11/13 13:22:57;;;;;;;50.58;48.03;;;;;;;;;;5061194;28;20036;-66
2023/11/13 13:25:30;;;;;;;48.10;45.60;;;;;;;;;;5061625;28;20032;-65
2023/11/13 13:27:59;;;;;;;49.78;47.10;;;;;;;;;;5062906;28;20047;-63
2023/11/13 13:30:29;;;;;;;51.95;49.15;;;;;;;;;;5064090;28;20063;-64
2023/11/13 13:32:56;;;;;;;51.80;49.20;;;;;;;;;;5063363;28;20484;-67
2023/11/13 13:35:23;;;;;;;52.38;49.78;;;;;;;;;;5063372;28;20506;-65
2023/11/13 13:37:49;;;;;;;57.33;54.42;;;;;;;;;;5062861;28;20480;-64
2023/11/13 13:40:15;;;;;;;58.17;55.20;;;;;;;;;;5065371;28;20116;-63
2023/11/13 13:42:41;;;;;;;60.58;57.53;;;;;;;;;;5062306;28;20078;-64
2023/11/13 13:45:07;;;;;;;62.53;59.38;;;;;;;;;;5060058;28;20083;-63
2023/11/13 13:47:34;;;;;;;59.75;56.75;;;;;;;;;;5063850;28;20032;-63
2023/11/13 13:49:59;;;;;;;62.25;59.15;;;;;;;;;;5064305;28;20603;-65
2023/11/13 13:52:29;;;;;;;65.78;62.15;;;;;;;;;;5064640;28;20036;-65
2023/11/13 13:54:58;;;;;;;67.13;63.75;;;;;;;;;;5070447;28;20040;-63
2023/11/13 13:57:24;;;;;;;63.65;60.47;;;;;;;;;;5069141;28;20033;-66
2023/11/13 13:59:49;;;;;;;71.72;68.15;;;;;;;;;;5062888;28;20047;-63
2023/11/13 14:02:15;;;;;;;70.03;66.53;;;;;;;;;;5062039;28;20040;-65
2023/11/13 14:04:40;;;;;;;67.95;64.55;;;;;;;;;;5065059;28;20792;-66
2023/11/13 14:07:06;;;;;;;58.95;55.92;;;;;;;;;;5062885;28;20119;-66
2023/11/13 14:09:32;;;;;;;64.00;60.72;;;;;;;;;;5063516;28;20541;-67
2023/11/13 14:11:57;;;;;;;61.05;57.97;;;;;;;;;;5064201;28;20052;-66
2023/11/13 14:14:22;;;;;;;60.10;56.95;;;;;;;;;;5063445;28;20401;-66
2023/11/13 14:16:50;;;;;;;60.03;57.00;;;;;;;;;;5067087;28;20042;-66
2023/11/13 14:19:15;;;;;;;60.67;57.63;;;;;;;;;;5061742;28;20063;-65